sensor_id;sensor_type;location;lat;lon;timestamp;temperature;humidity
14349;DHT22;7258;50.376;8.742;2022-09-25T00:01:59;12.60;99.90
14349;DHT22;7258;50.376;8.742;2022-09-25T00:04:02;12.50;99.90
14349;DHT22;7258;50.376;8.742;2022-09-25T00:06:07;12.50;99.90
14349;DHT22;7258;50.376;8.742;2022-09-25T00:08:10;12.50;99.90
14349;DHT22;7258;50.376;8.742;2022-09-25T00:10:15;12.50;99.90
14349;DHT22;7258;50.376;8.742;2022-09-25T00:12:18;12.50;99.90
14349;DHT22;7258;50.376;8.742;2022-09-25T00:14:21;12.50;99.90
14349;DHT22;7258;50.376;8.742;2022-09-25T00:16:25;12.50;99.90
14349;DHT22;7258;50.376;8.742;2022-09-25T00:18:29;12.50;99.90
14349;DHT22;7258;50.376;8.742;2022-09-25T00:20:59;12.60;99.90
14349;DHT22;7258;50.376;8.742;2022-09-25T00:23:02;12.60;99.90
14349;DHT22;7258;50.376;8.742;2022-09-25T00:25:05;12.60;99.90
14349;DHT22;7258;50.376;8.742;2022-09-25T00:27:12;12.60;99.90
14349;DHT22;7258;50.376;8.742;2022-09-25T00:29:17;12.60;99.90
14349;DHT22;7258;50.376;8.742;2022-09-25T00:31:22;12.60;99.90
14349;DHT22;7258;50.376;8.742;2022-09-25T00:33:26;12.50;99.90
14349;DHT22;7258;50.376;8.742;2022-09-25T00:35:29;12.50;99.90
14349;DHT22;7258;50.376;8.742;2022-09-25T00:37:32;12.50;99.90
14349;DHT22;7258;50.376;8.742;2022-09-25T00:39:35;12.50;99.90
14349;DHT22;7258;50.376;8.742;2022-09-25T00:41:38;12.50;99.90
14349;DHT22;7258;50.376;8.742;2022-09-25T00:43:44;12.50;99.90
14349;DHT22;7258;50.376;8.742;2022-09-25T00:45:48;12.50;99.90
14349;DHT22;7258;50.376;8.742;2022-09-25T00:47:55;12.50;99.90
14349;DHT22;7258;50.376;8.742;2022-09-25T00:50:01;12.50;99.90
14349;DHT22;7258;50.376;8.742;2022-09-25T00:52:06;12.60;99.90
14349;DHT22;7258;50.376;8.742;2022-09-25T00:54:15;12.60;99.90
14349;DHT22;7258;50.376;8.742;2022-09-25T00:56:19;12.60;99.90
14349;DHT22;7258;50.376;8.742;2022-09-25T00:58:23;12.50;99.90
14349;DHT22;7258;50.376;8.742;2022-09-25T01:00:30;12.50;99.90
14349;DHT22;7258;50.376;8.742;2022-09-25T01:02:34;12.50;99.90
14349;DHT22;7258;50.376;8.742;2022-09-25T01:04:41;12.50;99.90
14349;DHT22;7258;50.376;8.742;2022-09-25T01:06:47;12.50;99.90
14349;DHT22;7258;50.376;8.742;2022-09-25T01:08:50;12.50;99.90
14349;DHT22;7258;50.376;8.742;2022-09-25T01:10:53;12.50;99.90
14349;DHT22;7258;50.376;8.742;2022-09-25T01:12:56;12.50;99.90
14349;DHT22;7258;50.376;8.742;2022-09-25T01:15:00;12.50;99.90
14349;DHT22;7258;50.376;8.742;2022-09-25T01:17:09;12.50;99.90
14349;DHT22;7258;50.376;8.742;2022-09-25T01:19:28;12.50;99.90
14349;DHT22;7258;50.376;8.742;2022-09-25T01:21:38;12.40;99.90
14349;DHT22;7258;50.376;8.742;2022-09-25T01:24:00;12.40;99.90
14349;DHT22;7258;50.376;8.742;2022-09-25T01:26:19;12.50;99.90
14349;DHT22;7258;50.376;8.742;2022-09-25T01:28:54;12.40;99.90
14349;DHT22;7258;50.376;8.742;2022-09-25T01:31:05;12.40;99.90
14349;DHT22;7258;50.376;8.742;2022-09-25T01:33:14;12.40;99.90
14349;DHT22;7258;50.376;8.742;2022-09-25T01:35:32;12.40;99.90
14349;DHT22;7258;50.376;8.742;2022-09-25T01:37:42;12.40;99.90
14349;DHT22;7258;50.376;8.742;2022-09-25T01:39:50;12.40;99.90
14349;DHT22;7258;50.376;8.742;2022-09-25T01:41:59;12.40;99.90
14349;DHT22;7258;50.376;8.742;2022-09-25T01:44:10;12.50;99.90
14349;DHT22;7258;50.376;8.742;2022-09-25T01:46:15;12.50;99.90
14349;DHT22;7258;50.376;8.742;2022-09-25T01:48:22;12.50;99.90
14349;DHT22;7258;50.376;8.742;2022-09-25T01:50:29;12.50;99.90
14349;DHT22;7258;50.376;8.742;2022-09-25T01:52:37;12.50;99.90
14349;DHT22;7258;50.376;8.742;2022-09-25T01:54:44;12.40;99.90
14349;DHT22;7258;50.376;8.742;2022-09-25T01:56:51;12.40;99.90
14349;DHT22;7258;50.376;8.742;2022-09-25T01:58:57;12.50;99.90
14349;DHT22;7258;50.376;8.742;2022-09-25T02:01:05;12.40;99.90
14349;DHT22;7258;50.376;8.742;2022-09-25T02:03:14;12.40;99.90
14349;DHT22;7258;50.376;8.742;2022-09-25T02:05:21;12.40;99.90
14349;DHT22;7258;50.376;8.742;2022-09-25T02:07:32;12.40;99.90
14349;DHT22;7258;50.376;8.742;2022-09-25T02:09:41;12.40;99.90
14349;DHT22;7258;50.376;8.742;2022-09-25T02:11:48;12.40;99.90
14349;DHT22;7258;50.376;8.742;2022-09-25T02:13:55;12.40;99.90
14349;DHT22;7258;50.376;8.742;2022-09-25T02:16:07;12.40;99.90
14349;DHT22;7258;50.376;8.742;2022-09-25T02:18:14;12.40;99.90
14349;DHT22;7258;50.376;8.742;2022-09-25T02:20:36;12.40;99.90
14349;DHT22;7258;50.376;8.742;2022-09-25T02:22:43;12.40;99.90
14349;DHT22;7258;50.376;8.742;2022-09-25T02:24:49;12.40;99.90
14349;DHT22;7258;50.376;8.742;2022-09-25T02:27:00;12.40;99.90
14349;DHT22;7258;50.376;8.742;2022-09-25T02:29:04;12.40;99.90
14349;DHT22;7258;50.376;8.742;2022-09-25T02:31:10;12.40;99.90
14349;DHT22;7258;50.376;8.742;2022-09-25T02:33:14;12.40;99.90
14349;DHT22;7258;50.376;8.742;2022-09-25T02:35:17;12.30;99.90
14349;DHT22;7258;50.376;8.742;2022-09-25T02:37:20;12.30;99.90
14349;DHT22;7258;50.376;8.742;2022-09-25T02:39:25;12.30;99.90
14349;DHT22;7258;50.376;8.742;2022-09-25T02:41:48;12.30;99.90
14349;DHT22;7258;50.376;8.742;2022-09-25T02:44:08;12.30;99.90
14349;DHT22;7258;50.376;8.742;2022-09-25T02:46:21;12.30;99.90
14349;DHT22;7258;50.376;8.742;2022-09-25T02:48:36;12.30;99.90
14349;DHT22;7258;50.376;8.742;2022-09-25T02:50:49;12.30;99.90
14349;DHT22;7258;50.376;8.742;2022-09-25T02:53:02;12.30;99.90
14349;DHT22;7258;50.376;8.742;2022-09-25T02:55:12;12.30;99.90
14349;DHT22;7258;50.376;8.742;2022-09-25T02:57:22;12.30;99.90
14349;DHT22;7258;50.376;8.742;2022-09-25T02:59:33;12.30;99.90
14349;DHT22;7258;50.376;8.742;2022-09-25T03:01:40;12.30;99.90
14349;DHT22;7258;50.376;8.742;2022-09-25T03:03:45;12.30;99.90
14349;DHT22;7258;50.376;8.742;2022-09-25T03:05:51;12.30;99.90
14349;DHT22;7258;50.376;8.742;2022-09-25T03:07:56;12.30;99.90
14349;DHT22;7258;50.376;8.742;2022-09-25T03:10:17;12.30;99.90
14349;DHT22;7258;50.376;8.742;2022-09-25T03:12:21;12.30;99.90
14349;DHT22;7258;50.376;8.742;2022-09-25T03:14:26;12.30;99.90
14349;DHT22;7258;50.376;8.742;2022-09-25T03:16:33;12.30;99.90
14349;DHT22;7258;50.376;8.742;2022-09-25T03:18:41;12.30;99.90
14349;DHT22;7258;50.376;8.742;2022-09-25T03:20:44;12.30;99.90
14349;DHT22;7258;50.376;8.742;2022-09-25T03:22:48;12.30;99.90
14349;DHT22;7258;50.376;8.742;2022-09-25T03:24:51;12.30;99.90
14349;DHT22;7258;50.376;8.742;2022-09-25T03:26:54;12.30;99.90
14349;DHT22;7258;50.376;8.742;2022-09-25T03:28:57;12.30;99.90
14349;DHT22;7258;50.376;8.742;2022-09-25T03:31:04;12.20;99.90
14349;DHT22;7258;50.376;8.742;2022-09-25T03:33:09;12.20;99.90
14349;DHT22;7258;50.376;8.742;2022-09-25T03:35:14;12.20;99.90
14349;DHT22;7258;50.376;8.742;2022-09-25T03:37:17;12.20;99.90
14349;DHT22;7258;50.376;8.742;2022-09-25T03:39:20;12.20;99.90
14349;DHT22;7258;50.376;8.742;2022-09-25T03:41:25;12.20;99.90
14349;DHT22;7258;50.376;8.742;2022-09-25T03:43:28;12.20;99.90
14349;DHT22;7258;50.376;8.742;2022-09-25T03:45:34;12.20;99.90
14349;DHT22;7258;50.376;8.742;2022-09-25T03:47:37;12.20;99.90
14349;DHT22;7258;50.376;8.742;2022-09-25T03:49:41;12.20;99.90
14349;DHT22;7258;50.376;8.742;2022-09-25T03:51:45;12.10;99.90
14349;DHT22;7258;50.376;8.742;2022-09-25T03:53:49;12.10;99.90
14349;DHT22;7258;50.376;8.742;2022-09-25T03:55:52;12.10;99.90
14349;DHT22;7258;50.376;8.742;2022-09-25T03:57:55;12.10;99.90
14349;DHT22;7258;50.376;8.742;2022-09-25T03:59:58;12.00;99.90
14349;DHT22;7258;50.376;8.742;2022-09-25T04:02:03;12.00;99.90
14349;DHT22;7258;50.376;8.742;2022-09-25T04:04:06;12.00;99.90
14349;DHT22;7258;50.376;8.742;2022-09-25T04:06:09;12.00;99.90
14349;DHT22;7258;50.376;8.742;2022-09-25T04:08:12;12.00;99.90
14349;DHT22;7258;50.376;8.742;2022-09-25T04:10:16;12.00;99.90
14349;DHT22;7258;50.376;8.742;2022-09-25T04:12:19;12.00;99.90
14349;DHT22;7258;50.376;8.742;2022-09-25T04:14:22;12.00;99.90
14349;DHT22;7258;50.376;8.742;2022-09-25T04:16:25;11.90;99.90
14349;DHT22;7258;50.376;8.742;2022-09-25T04:18:28;11.90;99.90
14349;DHT22;7258;50.376;8.742;2022-09-25T04:20:32;11.90;99.90
14349;DHT22;7258;50.376;8.742;2022-09-25T04:22:35;11.90;99.90
14349;DHT22;7258;50.376;8.742;2022-09-25T04:24:40;11.90;99.90
14349;DHT22;7258;50.376;8.742;2022-09-25T04:26:48;11.90;99.90
14349;DHT22;7258;50.376;8.742;2022-09-25T04:28:53;11.90;99.90
14349;DHT22;7258;50.376;8.742;2022-09-25T04:30:56;11.90;99.90
14349;DHT22;7258;50.376;8.742;2022-09-25T04:32:59;11.90;99.90
14349;DHT22;7258;50.376;8.742;2022-09-25T04:35:19;12.00;99.90
14349;DHT22;7258;50.376;8.742;2022-09-25T04:37:23;12.00;99.90
14349;DHT22;7258;50.376;8.742;2022-09-25T04:39:26;12.00;99.90
14349;DHT22;7258;50.376;8.742;2022-09-25T04:41:31;12.00;99.90
14349;DHT22;7258;50.376;8.742;2022-09-25T04:43:36;12.00;99.90
14349;DHT22;7258;50.376;8.742;2022-09-25T04:45:39;12.00;99.90
14349;DHT22;7258;50.376;8.742;2022-09-25T04:47:42;12.00;99.90
14349;DHT22;7258;50.376;8.742;2022-09-25T04:49:45;11.90;99.90
14349;DHT22;7258;50.376;8.742;2022-09-25T04:51:48;11.90;99.90
14349;DHT22;7258;50.376;8.742;2022-09-25T04:53:51;11.90;99.90
14349;DHT22;7258;50.376;8.742;2022-09-25T04:55:59;12.00;99.90
14349;DHT22;7258;50.376;8.742;2022-09-25T04:58:03;12.00;99.90
14349;DHT22;7258;50.376;8.742;2022-09-25T05:00:07;11.90;99.90
14349;DHT22;7258;50.376;8.742;2022-09-25T05:02:10;11.90;99.90
14349;DHT22;7258;50.376;8.742;2022-09-25T05:04:14;11.90;99.90
14349;DHT22;7258;50.376;8.742;2022-09-25T05:06:17;11.90;99.90
14349;DHT22;7258;50.376;8.742;2022-09-25T05:08:21;11.90;99.90
14349;DHT22;7258;50.376;8.742;2022-09-25T05:10:27;11.90;99.90
14349;DHT22;7258;50.376;8.742;2022-09-25T05:12:30;12.00;99.90
14349;DHT22;7258;50.376;8.742;2022-09-25T05:14:34;12.00;99.90
14349;DHT22;7258;50.376;8.742;2022-09-25T05:16:41;12.00;99.90
14349;DHT22;7258;50.376;8.742;2022-09-25T05:18:47;12.00;99.90
14349;DHT22;7258;50.376;8.742;2022-09-25T05:20:50;11.90;99.90
14349;DHT22;7258;50.376;8.742;2022-09-25T05:22:55;11.90;99.90
14349;DHT22;7258;50.376;8.742;2022-09-25T05:25:08;11.90;99.90
14349;DHT22;7258;50.376;8.742;2022-09-25T05:27:11;11.90;99.90
14349;DHT22;7258;50.376;8.742;2022-09-25T05:29:14;11.90;99.90
14349;DHT22;7258;50.376;8.742;2022-09-25T05:31:18;11.90;99.90
14349;DHT22;7258;50.376;8.742;2022-09-25T05:33:21;11.90;99.90
14349;DHT22;7258;50.376;8.742;2022-09-25T05:35:25;12.00;99.90
14349;DHT22;7258;50.376;8.742;2022-09-25T05:37:29;11.90;99.90
14349;DHT22;7258;50.376;8.742;2022-09-25T05:39:31;11.90;99.90
14349;DHT22;7258;50.376;8.742;2022-09-25T05:41:34;11.90;99.90
14349;DHT22;7258;50.376;8.742;2022-09-25T05:43:38;11.90;99.90
14349;DHT22;7258;50.376;8.742;2022-09-25T05:45:42;11.90;99.90
14349;DHT22;7258;50.376;8.742;2022-09-25T05:47:58;11.90;99.90
14349;DHT22;7258;50.376;8.742;2022-09-25T05:50:02;11.90;99.90
14349;DHT22;7258;50.376;8.742;2022-09-25T05:52:05;11.90;99.90
14349;DHT22;7258;50.376;8.742;2022-09-25T05:54:09;11.90;99.90
14349;DHT22;7258;50.376;8.742;2022-09-25T05:56:11;11.90;99.90
14349;DHT22;7258;50.376;8.742;2022-09-25T05:58:14;11.90;99.90
14349;DHT22;7258;50.376;8.742;2022-09-25T06:00:17;11.90;99.90
14349;DHT22;7258;50.376;8.742;2022-09-25T06:02:20;11.90;99.90
14349;DHT22;7258;50.376;8.742;2022-09-25T06:04:24;11.90;99.90
14349;DHT22;7258;50.376;8.742;2022-09-25T06:06:28;11.90;99.90
14349;DHT22;7258;50.376;8.742;2022-09-25T06:08:32;11.90;99.90
14349;DHT22;7258;50.376;8.742;2022-09-25T06:10:36;11.90;99.90
14349;DHT22;7258;50.376;8.742;2022-09-25T06:12:39;11.90;99.90
14349;DHT22;7258;50.376;8.742;2022-09-25T06:14:41;11.90;99.90
14349;DHT22;7258;50.376;8.742;2022-09-25T06:16:46;11.90;99.90
14349;DHT22;7258;50.376;8.742;2022-09-25T06:18:51;11.90;99.90
14349;DHT22;7258;50.376;8.742;2022-09-25T06:21:00;11.90;99.90
14349;DHT22;7258;50.376;8.742;2022-09-25T06:23:03;11.90;99.90
14349;DHT22;7258;50.376;8.742;2022-09-25T06:25:07;12.00;99.90
14349;DHT22;7258;50.376;8.742;2022-09-25T06:27:11;12.00;99.90
14349;DHT22;7258;50.376;8.742;2022-09-25T06:29:14;12.00;99.90
14349;DHT22;7258;50.376;8.742;2022-09-25T06:31:17;12.00;99.90
14349;DHT22;7258;50.376;8.742;2022-09-25T06:33:23;12.10;99.90
14349;DHT22;7258;50.376;8.742;2022-09-25T06:35:26;12.10;99.90
14349;DHT22;7258;50.376;8.742;2022-09-25T06:37:31;12.10;99.90
14349;DHT22;7258;50.376;8.742;2022-09-25T06:39:33;12.10;99.90
14349;DHT22;7258;50.376;8.742;2022-09-25T06:41:39;12.10;99.90
14349;DHT22;7258;50.376;8.742;2022-09-25T06:43:43;12.10;99.90
14349;DHT22;7258;50.376;8.742;2022-09-25T06:45:45;12.10;99.90
14349;DHT22;7258;50.376;8.742;2022-09-25T06:47:51;12.20;99.90
14349;DHT22;7258;50.376;8.742;2022-09-25T06:49:59;12.20;99.90
14349;DHT22;7258;50.376;8.742;2022-09-25T06:52:01;12.20;99.90
14349;DHT22;7258;50.376;8.742;2022-09-25T06:54:07;12.20;99.90
14349;DHT22;7258;50.376;8.742;2022-09-25T06:56:10;12.30;99.90
14349;DHT22;7258;50.376;8.742;2022-09-25T06:58:15;12.30;99.90
14349;DHT22;7258;50.376;8.742;2022-09-25T07:00:20;12.30;99.90
14349;DHT22;7258;50.376;8.742;2022-09-25T07:02:23;12.40;99.90
14349;DHT22;7258;50.376;8.742;2022-09-25T07:04:43;12.50;99.90
14349;DHT22;7258;50.376;8.742;2022-09-25T07:06:46;12.50;99.90
14349;DHT22;7258;50.376;8.742;2022-09-25T07:08:50;12.50;99.90
14349;DHT22;7258;50.376;8.742;2022-09-25T07:10:56;12.50;99.90
14349;DHT22;7258;50.376;8.742;2022-09-25T07:13:00;12.50;99.90
14349;DHT22;7258;50.376;8.742;2022-09-25T07:15:03;12.50;99.90
14349;DHT22;7258;50.376;8.742;2022-09-25T07:17:07;12.60;99.90
14349;DHT22;7258;50.376;8.742;2022-09-25T07:19:10;12.60;99.90
14349;DHT22;7258;50.376;8.742;2022-09-25T07:21:14;12.60;99.90
14349;DHT22;7258;50.376;8.742;2022-09-25T07:23:19;12.60;99.90
14349;DHT22;7258;50.376;8.742;2022-09-25T07:25:22;12.60;99.90
14349;DHT22;7258;50.376;8.742;2022-09-25T07:27:26;12.60;99.90
14349;DHT22;7258;50.376;8.742;2022-09-25T07:29:29;12.70;99.90
14349;DHT22;7258;50.376;8.742;2022-09-25T07:31:33;12.70;99.90
14349;DHT22;7258;50.376;8.742;2022-09-25T07:33:36;12.70;99.90
14349;DHT22;7258;50.376;8.742;2022-09-25T07:35:39;12.70;99.90
14349;DHT22;7258;50.376;8.742;2022-09-25T07:37:42;12.70;99.90
14349;DHT22;7258;50.376;8.742;2022-09-25T07:39:45;12.70;99.90
14349;DHT22;7258;50.376;8.742;2022-09-25T07:41:48;12.70;99.90
14349;DHT22;7258;50.376;8.742;2022-09-25T07:43:52;12.70;99.90
14349;DHT22;7258;50.376;8.742;2022-09-25T07:46:16;12.70;99.90
14349;DHT22;7258;50.376;8.742;2022-09-25T07:48:20;12.80;99.90
14349;DHT22;7258;50.376;8.742;2022-09-25T07:50:24;12.80;99.90
14349;DHT22;7258;50.376;8.742;2022-09-25T07:52:26;12.80;99.90
14349;DHT22;7258;50.376;8.742;2022-09-25T07:54:29;12.80;99.90
14349;DHT22;7258;50.376;8.742;2022-09-25T07:56:33;12.80;99.90
14349;DHT22;7258;50.376;8.742;2022-09-25T07:58:38;12.80;99.90
14349;DHT22;7258;50.376;8.742;2022-09-25T08:00:43;12.80;99.90
14349;DHT22;7258;50.376;8.742;2022-09-25T08:02:54;12.80;99.90
14349;DHT22;7258;50.376;8.742;2022-09-25T08:04:57;12.80;99.90
14349;DHT22;7258;50.376;8.742;2022-09-25T08:07:00;12.80;99.90
14349;DHT22;7258;50.376;8.742;2022-09-25T08:09:03;12.80;99.90
14349;DHT22;7258;50.376;8.742;2022-09-25T08:11:14;12.80;99.90
14349;DHT22;7258;50.376;8.742;2022-09-25T08:13:17;12.70;99.90
14349;DHT22;7258;50.376;8.742;2022-09-25T08:15:21;12.70;99.90
14349;DHT22;7258;50.376;8.742;2022-09-25T08:17:26;12.70;99.90
14349;DHT22;7258;50.376;8.742;2022-09-25T08:19:31;12.70;99.90
14349;DHT22;7258;50.376;8.742;2022-09-25T08:21:34;12.80;99.90
14349;DHT22;7258;50.376;8.742;2022-09-25T08:23:37;12.80;99.90
14349;DHT22;7258;50.376;8.742;2022-09-25T08:25:46;12.70;99.90
14349;DHT22;7258;50.376;8.742;2022-09-25T08:27:50;12.70;99.90
14349;DHT22;7258;50.376;8.742;2022-09-25T08:29:53;12.70;99.90
14349;DHT22;7258;50.376;8.742;2022-09-25T08:31:56;12.70;99.90
14349;DHT22;7258;50.376;8.742;2022-09-25T08:34:00;12.70;99.90
14349;DHT22;7258;50.376;8.742;2022-09-25T08:36:23;12.70;99.90
14349;DHT22;7258;50.376;8.742;2022-09-25T08:38:27;12.70;99.90
14349;DHT22;7258;50.376;8.742;2022-09-25T08:40:30;12.70;99.90
14349;DHT22;7258;50.376;8.742;2022-09-25T08:42:35;12.70;99.90
14349;DHT22;7258;50.376;8.742;2022-09-25T08:44:41;12.70;99.90
14349;DHT22;7258;50.376;8.742;2022-09-25T08:47:10;12.70;99.90
14349;DHT22;7258;50.376;8.742;2022-09-25T08:49:42;12.80;99.90
14349;DHT22;7258;50.376;8.742;2022-09-25T08:51:49;12.80;99.90
14349;DHT22;7258;50.376;8.742;2022-09-25T08:54:03;12.80;99.90
14349;DHT22;7258;50.376;8.742;2022-09-25T08:56:10;12.90;99.90
14349;DHT22;7258;50.376;8.742;2022-09-25T08:58:21;12.90;99.90
14349;DHT22;7258;50.376;8.742;2022-09-25T09:00:25;12.90;99.90
14349;DHT22;7258;50.376;8.742;2022-09-25T09:02:37;13.00;99.90
14349;DHT22;7258;50.376;8.742;2022-09-25T09:04:45;13.00;99.90
14349;DHT22;7258;50.376;8.742;2022-09-25T09:06:52;13.00;99.90
14349;DHT22;7258;50.376;8.742;2022-09-25T09:09:19;13.00;99.90
14349;DHT22;7258;50.376;8.742;2022-09-25T09:11:29;12.90;99.90
14349;DHT22;7258;50.376;8.742;2022-09-25T09:13:40;12.90;99.90
14349;DHT22;7258;50.376;8.742;2022-09-25T09:15:51;12.90;99.90
14349;DHT22;7258;50.376;8.742;2022-09-25T09:17:54;12.80;99.90
14349;DHT22;7258;50.376;8.742;2022-09-25T09:20:13;12.80;99.90
14349;DHT22;7258;50.376;8.742;2022-09-25T09:22:21;12.80;99.90
14349;DHT22;7258;50.376;8.742;2022-09-25T09:24:33;12.80;99.90
14349;DHT22;7258;50.376;8.742;2022-09-25T09:26:48;12.80;99.90
14349;DHT22;7258;50.376;8.742;2022-09-25T09:29:15;12.80;99.90
14349;DHT22;7258;50.376;8.742;2022-09-25T09:31:26;12.80;99.90
14349;DHT22;7258;50.376;8.742;2022-09-25T09:33:41;12.80;99.90
14349;DHT22;7258;50.376;8.742;2022-09-25T09:35:56;12.80;99.90
14349;DHT22;7258;50.376;8.742;2022-09-25T09:38:09;12.80;99.90
14349;DHT22;7258;50.376;8.742;2022-09-25T09:40:27;12.80;99.90
14349;DHT22;7258;50.376;8.742;2022-09-25T09:42:38;12.80;99.90
14349;DHT22;7258;50.376;8.742;2022-09-25T09:44:54;12.80;99.90
14349;DHT22;7258;50.376;8.742;2022-09-25T09:47:03;12.80;99.90
14349;DHT22;7258;50.376;8.742;2022-09-25T09:49:14;12.80;99.90
14349;DHT22;7258;50.376;8.742;2022-09-25T09:51:22;12.80;99.90
14349;DHT22;7258;50.376;8.742;2022-09-25T09:53:31;12.80;99.90
14349;DHT22;7258;50.376;8.742;2022-09-25T09:55:40;12.80;99.90
14349;DHT22;7258;50.376;8.742;2022-09-25T09:57:47;12.90;99.90
14349;DHT22;7258;50.376;8.742;2022-09-25T09:59:55;12.90;99.90
14349;DHT22;7258;50.376;8.742;2022-09-25T10:02:16;12.90;99.90
14349;DHT22;7258;50.376;8.742;2022-09-25T10:04:23;13.00;99.90
14349;DHT22;7258;50.376;8.742;2022-09-25T10:06:31;13.00;99.90
14349;DHT22;7258;50.376;8.742;2022-09-25T10:08:35;13.00;99.90
14349;DHT22;7258;50.376;8.742;2022-09-25T10:10:40;13.10;99.90
14349;DHT22;7258;50.376;8.742;2022-09-25T10:12:47;13.00;99.90
14349;DHT22;7258;50.376;8.742;2022-09-25T10:14:52;13.00;99.90
14349;DHT22;7258;50.376;8.742;2022-09-25T10:16:56;13.00;99.90
14349;DHT22;7258;50.376;8.742;2022-09-25T10:19:02;13.00;99.90
14349;DHT22;7258;50.376;8.742;2022-09-25T10:21:11;13.10;99.90
14349;DHT22;7258;50.376;8.742;2022-09-25T10:23:26;13.20;99.90
14349;DHT22;7258;50.376;8.742;2022-09-25T10:25:36;13.10;99.90
14349;DHT22;7258;50.376;8.742;2022-09-25T10:27:40;13.10;99.90
14349;DHT22;7258;50.376;8.742;2022-09-25T10:30:00;13.10;99.90
14349;DHT22;7258;50.376;8.742;2022-09-25T10:32:03;13.10;99.90
14349;DHT22;7258;50.376;8.742;2022-09-25T10:34:18;13.10;99.90
14349;DHT22;7258;50.376;8.742;2022-09-25T10:38:51;13.00;99.90
14349;DHT22;7258;50.376;8.742;2022-09-25T10:41:17;13.00;99.90
14349;DHT22;7258;50.376;8.742;2022-09-25T10:43:21;13.00;99.90
14349;DHT22;7258;50.376;8.742;2022-09-25T10:45:32;13.00;99.90
14349;DHT22;7258;50.376;8.742;2022-09-25T10:47:35;13.00;99.90
14349;DHT22;7258;50.376;8.742;2022-09-25T10:50:06;13.00;99.90
14349;DHT22;7258;50.376;8.742;2022-09-25T10:52:14;13.10;99.90
14349;DHT22;7258;50.376;8.742;2022-09-25T10:54:20;13.10;99.90
14349;DHT22;7258;50.376;8.742;2022-09-25T10:56:30;13.10;99.90
14349;DHT22;7258;50.376;8.742;2022-09-25T10:58:39;13.20;99.90
14349;DHT22;7258;50.376;8.742;2022-09-25T11:00:53;13.20;99.90
14349;DHT22;7258;50.376;8.742;2022-09-25T11:02:59;13.20;99.90
14349;DHT22;7258;50.376;8.742;2022-09-25T11:05:04;13.30;99.90
14349;DHT22;7258;50.376;8.742;2022-09-25T11:07:16;13.30;99.90
14349;DHT22;7258;50.376;8.742;2022-09-25T11:09:25;13.30;99.90
14349;DHT22;7258;50.376;8.742;2022-09-25T11:11:29;13.30;99.90
14349;DHT22;7258;50.376;8.742;2022-09-25T11:13:47;13.40;99.90
14349;DHT22;7258;50.376;8.742;2022-09-25T11:15:55;13.40;99.90
14349;DHT22;7258;50.376;8.742;2022-09-25T11:17:58;13.40;99.90
14349;DHT22;7258;50.376;8.742;2022-09-25T11:20:19;13.50;99.90
14349;DHT22;7258;50.376;8.742;2022-09-25T11:22:30;13.50;99.90
14349;DHT22;7258;50.376;8.742;2022-09-25T11:24:43;13.60;99.90
14349;DHT22;7258;50.376;8.742;2022-09-25T11:26:51;13.60;99.90
14349;DHT22;7258;50.376;8.742;2022-09-25T11:28:59;13.70;99.90
14349;DHT22;7258;50.376;8.742;2022-09-25T11:31:12;13.80;99.90
14349;DHT22;7258;50.376;8.742;2022-09-25T11:33:23;13.70;99.90
14349;DHT22;7258;50.376;8.742;2022-09-25T11:35:41;13.70;99.90
14349;DHT22;7258;50.376;8.742;2022-09-25T11:37:54;13.70;99.90
14349;DHT22;7258;50.376;8.742;2022-09-25T11:40:11;13.80;99.90
14349;DHT22;7258;50.376;8.742;2022-09-25T11:42:44;13.80;99.90
14349;DHT22;7258;50.376;8.742;2022-09-25T11:44:53;13.80;99.90
14349;DHT22;7258;50.376;8.742;2022-09-25T11:47:03;13.90;99.90
14349;DHT22;7258;50.376;8.742;2022-09-25T11:49:16;13.90;99.90
14349;DHT22;7258;50.376;8.742;2022-09-25T11:51:30;13.90;99.90
14349;DHT22;7258;50.376;8.742;2022-09-25T11:53:44;13.90;99.90
14349;DHT22;7258;50.376;8.742;2022-09-25T11:56:09;13.90;99.90
14349;DHT22;7258;50.376;8.742;2022-09-25T11:58:30;13.90;99.90
14349;DHT22;7258;50.376;8.742;2022-09-25T12:00:41;13.80;99.90
14349;DHT22;7258;50.376;8.742;2022-09-25T12:03:05;13.80;99.90
14349;DHT22;7258;50.376;8.742;2022-09-25T12:05:23;13.80;99.90
14349;DHT22;7258;50.376;8.742;2022-09-25T12:07:53;13.90;99.90
14349;DHT22;7258;50.376;8.742;2022-09-25T12:10:22;13.80;99.90
14349;DHT22;7258;50.376;8.742;2022-09-25T12:12:32;13.80;99.90
14349;DHT22;7258;50.376;8.742;2022-09-25T12:14:41;13.80;99.90
14349;DHT22;7258;50.376;8.742;2022-09-25T12:16:52;13.90;99.90
14349;DHT22;7258;50.376;8.742;2022-09-25T12:19:21;13.80;99.90
14349;DHT22;7258;50.376;8.742;2022-09-25T12:21:32;13.80;99.90
14349;DHT22;7258;50.376;8.742;2022-09-25T12:23:45;13.70;99.90
14349;DHT22;7258;50.376;8.742;2022-09-25T12:26:05;13.70;99.90
14349;DHT22;7258;50.376;8.742;2022-09-25T12:28:19;13.70;99.90
14349;DHT22;7258;50.376;8.742;2022-09-25T12:30:30;13.70;99.90
14349;DHT22;7258;50.376;8.742;2022-09-25T12:32:48;13.70;99.90
14349;DHT22;7258;50.376;8.742;2022-09-25T12:35:08;13.70;99.90
14349;DHT22;7258;50.376;8.742;2022-09-25T12:37:18;13.70;99.90
14349;DHT22;7258;50.376;8.742;2022-09-25T12:39:32;13.70;99.90
14349;DHT22;7258;50.376;8.742;2022-09-25T12:41:40;13.70;99.90
14349;DHT22;7258;50.376;8.742;2022-09-25T12:43:51;13.70;99.90
14349;DHT22;7258;50.376;8.742;2022-09-25T12:46:01;13.70;99.90
14349;DHT22;7258;50.376;8.742;2022-09-25T12:48:13;13.70;99.90
14349;DHT22;7258;50.376;8.742;2022-09-25T12:50:20;13.70;99.90
14349;DHT22;7258;50.376;8.742;2022-09-25T12:52:28;13.70;99.90
14349;DHT22;7258;50.376;8.742;2022-09-25T12:54:35;13.70;99.90
14349;DHT22;7258;50.376;8.742;2022-09-25T12:56:45;13.70;99.90
14349;DHT22;7258;50.376;8.742;2022-09-25T12:58:59;13.70;99.90
14349;DHT22;7258;50.376;8.742;2022-09-25T13:01:08;13.70;99.90
14349;DHT22;7258;50.376;8.742;2022-09-25T13:03:15;13.70;99.90
14349;DHT22;7258;50.376;8.742;2022-09-25T13:05:26;13.80;99.90
14349;DHT22;7258;50.376;8.742;2022-09-25T13:07:35;13.80;99.90
14349;DHT22;7258;50.376;8.742;2022-09-25T13:09:42;13.80;99.90
14349;DHT22;7258;50.376;8.742;2022-09-25T13:11:49;13.80;99.90
14349;DHT22;7258;50.376;8.742;2022-09-25T13:13:55;13.80;99.90
14349;DHT22;7258;50.376;8.742;2022-09-25T13:16:00;13.80;99.90
14349;DHT22;7258;50.376;8.742;2022-09-25T13:18:05;13.90;99.90
14349;DHT22;7258;50.376;8.742;2022-09-25T13:20:39;13.80;99.90
14349;DHT22;7258;50.376;8.742;2022-09-25T13:22:43;13.80;99.90
14349;DHT22;7258;50.376;8.742;2022-09-25T13:24:49;13.80;99.90
14349;DHT22;7258;50.376;8.742;2022-09-25T13:26:54;13.80;99.90
14349;DHT22;7258;50.376;8.742;2022-09-25T13:29:16;13.80;99.90
14349;DHT22;7258;50.376;8.742;2022-09-25T13:31:23;13.80;99.90
14349;DHT22;7258;50.376;8.742;2022-09-25T13:33:27;13.80;99.90
14349;DHT22;7258;50.376;8.742;2022-09-25T13:35:32;13.80;99.90
14349;DHT22;7258;50.376;8.742;2022-09-25T13:37:36;13.80;99.90
14349;DHT22;7258;50.376;8.742;2022-09-25T13:39:41;13.80;99.90
14349;DHT22;7258;50.376;8.742;2022-09-25T13:42:07;13.80;99.90
14349;DHT22;7258;50.376;8.742;2022-09-25T13:44:37;13.70;99.90